Time;durP1;ratioP1;P1;durP2;ratioP2;P2;SDS_P1;SDS_P2;PMS_P1;PMS_P2;Temp;Humidity;BMP_temperature;BMP_pressure;BME280_temperature;BME280_humidity;BME280_pressure;Samples;Min_cycle;Max_cycle;Signal;HPM_P1;HPM_P2
2022/08/16 00:00:10;;;;;;;;;;;22.30;93.10;;;;;;5031962;28;19925;-71
2022/08/16 00:02:37;;;;;;;;;;;22.30;93.40;;;;;;5032785;28;20020;-71
2022/08/16 00:05:04;;;;;;;;;;;22.20;93.60;;;;;;5033189;28;19925;-71
2022/08/16 00:07:30;;;;;;;;;;;22.20;93.80;;;;;;5032476;28;19968;-71
2022/08/16 00:09:59;;;;;;;;;;;22.10;94.10;;;;;;5033153;28;19991;-72
2022/08/16 00:12:25;;;;;;;;;;;22.10;94.50;;;;;;5032222;28;19967;-71
2022/08/16 00:14:51;;;;;;;;;;;22.10;94.70;;;;;;5032602;28;20007;-72
2022/08/16 00:17:16;;;;;;;;;;;22.00;94.40;;;;;;5032712;28;20031;-71
2022/08/16 00:19:42;;;;;;;;;;;22.00;94.60;;;;;;5032730;28;19967;-71
2022/08/16 00:22:08;;;;;;;;;;;22.00;95.40;;;;;;5032351;28;19925;-71
2022/08/16 00:24:34;;;;;;;;;;;22.00;95.20;;;;;;5032288;28;19925;-71
2022/08/16 00:27:00;;;;;;;;;;;22.00;95.50;;;;;;5031596;28;19921;-71
2022/08/16 00:29:25;;;;;;;;;;;22.00;95.50;;;;;;5032438;28;19921;-71
2022/08/16 00:31:51;;;;;;;;;;;21.90;95.60;;;;;;5032430;28;19979;-71
2022/08/16 00:34:18;;;;;;;;;;;21.90;95.80;;;;;;5031508;28;20008;-71
2022/08/16 00:36:46;;;;;;;;;;;21.90;95.90;;;;;;5031745;28;20433;-71
2022/08/16 00:39:13;;;;;;;;;;;21.90;96.00;;;;;;5032386;28;19928;-71
2022/08/16 00:41:40;;;;;;;;;;;21.90;96.50;;;;;;5032168;28;20462;-71
2022/08/16 00:44:09;;;;;;;;;;;21.80;96.50;;;;;;5032252;28;19972;-71
2022/08/16 00:46:38;;;;;;;;;;;21.80;96.80;;;;;;5031372;28;20279;-70
2022/08/16 00:49:05;;;;;;;;;;;21.80;96.90;;;;;;5030977;28;20299;-71
2022/08/16 00:51:30;;;;;;;;;;;21.80;96.90;;;;;;5031773;28;19928;-71
2022/08/16 00:53:56;;;;;;;;;;;21.80;97.10;;;;;;5030372;28;19929;-71
2022/08/16 00:56:24;;;;;;;;;;;21.80;97.10;;;;;;5030836;28;19991;-70
2022/08/16 00:58:50;;;;;;;;;;;21.80;97.30;;;;;;5030924;28;20291;-71
2022/08/16 01:01:16;;;;;;;;;;;21.80;97.50;;;;;;5031013;28;19947;-71
2022/08/16 01:03:43;;;;;;;;;;;21.80;97.60;;;;;;5029359;28;20016;-71
2022/08/16 01:06:09;;;;;;;;;;;21.80;97.60;;;;;;5031337;28;19928;-71
2022/08/16 01:08:35;;;;;;;;;;;21.70;97.80;;;;;;5030934;28;20055;-71
2022/08/16 01:11:01;;;;;;;;;;;21.70;97.90;;;;;;5030479;28;19924;-71
2022/08/16 01:13:28;;;;;;;;;;;21.70;97.90;;;;;;5028944;28;19927;-71
2022/08/16 01:16:05;;;;;;;;;;;21.70;98.10;;;;;;5030451;28;19921;-71
2022/08/16 01:18:33;;;;;;;;;;;21.70;98.30;;;;;;5030474;28;20004;-71
2022/08/16 01:21:06;;;;;;;;;;;21.70;98.30;;;;;;5030930;28;19930;-71
2022/08/16 01:23:37;;;;;;;;;;;21.70;98.40;;;;;;5030750;28;19928;-71
2022/08/16 01:26:03;;;;;;;;;;;21.70;98.60;;;;;;5030674;28;19924;-71
2022/08/16 01:28:29;;;;;;;;;;;21.70;98.60;;;;;;5030582;28;19925;-71
2022/08/16 01:30:55;;;;;;;;;;;21.70;98.70;;;;;;5029202;28;19932;-71
2022/08/16 01:33:21;;;;;;;;;;;21.70;98.90;;;;;;5031002;28;20010;-71
2022/08/16 01:35:48;;;;;;;;;;;21.70;99.00;;;;;;5030414;28;19971;-70
2022/08/16 01:38:17;;;;;;;;;;;21.60;99.00;;;;;;5030054;28;19928;-71
2022/08/16 01:40:42;;;;;;;;;;;21.60;99.10;;;;;;5030243;28;19928;-71
2022/08/16 01:43:08;;;;;;;;;;;21.70;99.20;;;;;;5030536;28;19920;-71
2022/08/16 01:45:34;;;;;;;;;;;21.70;99.30;;;;;;5030176;28;20019;-70
2022/08/16 01:48:00;;;;;;;;;;;21.70;99.30;;;;;;5030322;28;20011;-71
2022/08/16 01:50:26;;;;;;;;;;;21.70;99.50;;;;;;5030273;28;19921;-71
2022/08/16 01:52:53;;;;;;;;;;;21.60;99.50;;;;;;5030155;28;19951;-72
2022/08/16 01:55:20;;;;;;;;;;;21.60;99.60;;;;;;5030169;28;19928;-71
2022/08/16 01:57:45;;;;;;;;;;;21.60;99.90;;;;;;5029619;28;21012;-71
2022/08/16 02:00:11;;;;;;;;;;;21.60;99.70;;;;;;5030185;28;19925;-71
2022/08/16 02:02:36;;;;;;;;;;;21.60;99.80;;;;;;5030286;28;19929;-71
2022/08/16 02:05:02;;;;;;;;;;;21.60;99.80;;;;;;5027777;28;19978;-70
2022/08/16 02:07:28;;;;;;;;;;;21.60;99.70;;;;;;5030284;28;19963;-71
2022/08/16 02:09:54;;;;;;;;;;;21.60;99.70;;;;;;5029817;28;20330;-71
2022/08/16 02:12:19;;;;;;;;;;;21.60;99.80;;;;;;5029351;28;20007;-71
2022/08/16 02:14:45;;;;;;;;;;;21.60;99.90;;;;;;5029435;28;19925;-70
2022/08/16 02:17:11;;;;;;;;;;;21.60;99.90;;;;;;5030086;28;19921;-71
2022/08/16 02:19:38;;;;;;;;;;;21.50;99.90;;;;;;5029591;28;19929;-71
2022/08/16 02:22:04;;;;;;;;;;;21.50;99.90;;;;;;5029957;28;20306;-71
2022/08/16 02:24:29;;;;;;;;;;;21.50;99.90;;;;;;5021093;28;19991;-71
2022/08/16 02:26:55;;;;;;;;;;;21.50;99.90;;;;;;5016878;28;20299;-71
2022/08/16 02:29:21;;;;;;;;;;;21.50;99.90;;;;;;5016879;28;19928;-71
2022/08/16 02:31:47;;;;;;;;;;;21.40;99.90;;;;;;5029329;28;19928;-71
2022/08/16 02:34:13;;;;;;;;;;;21.40;99.90;;;;;;5030048;28;19921;-70
2022/08/16 02:36:40;;;;;;;;;;;21.40;99.90;;;;;;5029586;28;20597;-71
2022/08/16 02:39:07;;;;;;;;;;;21.40;99.90;;;;;;5030175;28;19921;-71
2022/08/16 02:41:33;;;;;;;;;;;21.30;99.90;;;;;;5029459;28;19925;-72
2022/08/16 02:43:58;;;;;;;;;;;21.30;99.90;;;;;;5029776;28;19928;-70
2022/08/16 02:46:25;;;;;;;;;;;21.30;99.90;;;;;;5029900;28;20375;-71
2022/08/16 02:48:50;;;;;;;;;;;21.20;99.90;;;;;;5029872;28;20547;-72
2022/08/16 02:51:16;;;;;;;;;;;21.10;99.90;;;;;;5029121;28;19978;-72
2022/08/16 02:53:42;;;;;;;;;;;21.10;99.90;;;;;;5015215;28;20023;-71
2022/08/16 02:56:09;;;;;;;;;;;21.00;99.90;;;;;;5029153;28;20022;-71
2022/08/16 02:58:35;;;;;;;;;;;21.00;99.90;;;;;;5029578;28;20303;-71
2022/08/16 03:01:01;;;;;;;;;;;21.00;99.90;;;;;;5029859;28;19921;-71
2022/08/16 03:03:27;;;;;;;;;;;21.00;99.90;;;;;;5029498;28;19925;-71
2022/08/16 03:05:53;;;;;;;;;;;21.00;99.90;;;;;;5016756;28;19928;-71
2022/08/16 03:08:19;;;;;;;;;;;21.00;99.90;;;;;;5028804;28;19921;-71
2022/08/16 03:10:45;;;;;;;;;;;20.90;99.90;;;;;;5029131;28;19968;-71
2022/08/16 03:13:11;;;;;;;;;;;21.00;99.90;;;;;;5029374;28;20015;-70
2022/08/16 03:15:37;;;;;;;;;;;21.00;99.90;;;;;;5028885;28;19979;-71
2022/08/16 03:18:02;;;;;;;;;;;21.00;99.90;;;;;;5028500;28;20350;-71
2022/08/16 03:20:28;;;;;;;;;;;21.00;99.90;;;;;;5028604;28;19924;-71
2022/08/16 03:22:54;;;;;;;;;;;21.00;99.90;;;;;;5028357;28;20004;-72
2022/08/16 03:25:19;;;;;;;;;;;21.00;99.90;;;;;;5032809;28;20418;-71
2022/08/16 03:27:45;;;;;;;;;;;21.00;99.90;;;;;;5031537;28;19928;-71
2022/08/16 03:30:13;;;;;;;;;;;21.00;99.90;;;;;;5032631;28;19924;-71
2022/08/16 03:32:38;;;;;;;;;;;21.00;99.90;;;;;;5032197;28;19964;-71
2022/08/16 03:35:06;;;;;;;;;;;21.00;99.90;;;;;;5032002;28;19975;-71
2022/08/16 03:37:31;;;;;;;;;;;21.00;99.90;;;;;;5032360;28;19925;-71
2022/08/16 03:39:57;;;;;;;;;;;21.00;99.90;;;;;;5032649;28;19948;-71
2022/08/16 03:42:23;;;;;;;;;;;21.00;99.90;;;;;;5032324;28;19921;-71
2022/08/16 03:44:48;;;;;;;;;;;21.00;99.90;;;;;;5032078;28;19927;-71
2022/08/16 03:47:14;;;;;;;;;;;21.00;99.90;;;;;;5033325;28;20438;-72
2022/08/16 03:49:40;;;;;;;;;;;21.00;99.90;;;;;;5032895;28;19925;-71
2022/08/16 03:52:05;;;;;;;;;;;20.90;99.90;;;;;;5033099;28;20011;-70
2022/08/16 03:54:31;;;;;;;;;;;20.90;99.90;;;;;;5032954;28;20405;-71
2022/08/16 03:56:57;;;;;;;;;;;20.80;99.90;;;;;;5032421;28;19929;-71
2022/08/16 03:59:22;;;;;;;;;;;20.90;99.90;;;;;;5032802;28;19921;-71
2022/08/16 04:01:48;;;;;;;;;;;20.80;99.90;;;;;;5033052;28;19948;-70
2022/08/16 04:04:13;;;;;;;;;;;20.80;99.90;;;;;;5032839;28;19975;-71
2022/08/16 04:06:39;;;;;;;;;;;20.80;99.90;;;;;;5032924;28;20035;-71
2022/08/16 04:09:05;;;;;;;;;;;20.80;99.90;;;;;;5031917;28;20302;-71
2022/08/16 04:11:30;;;;;;;;;;;20.80;99.90;;;;;;5032062;28;20375;-71
2022/08/16 04:13:56;;;;;;;;;;;20.70;99.90;;;;;;5032054;28;19921;-71
2022/08/16 04:16:21;;;;;;;;;;;20.70;99.90;;;;;;5032585;28;19927;-71
2022/08/16 04:18:48;;;;;;;;;;;20.70;99.90;;;;;;5032657;28;19921;-71
2022/08/16 04:21:13;;;;;;;;;;;20.70;99.90;;;;;;5032515;28;19927;-70
2022/08/16 04:23:40;;;;;;;;;;;20.70;99.90;;;;;;5032331;28;19925;-71
2022/08/16 04:26:06;;;;;;;;;;;20.60;99.90;;;;;;5032206;28;19921;-71
2022/08/16 04:28:31;;;;;;;;;;;20.60;99.90;;;;;;5032172;28;19956;-71
2022/08/16 04:30:57;;;;;;;;;;;20.60;99.90;;;;;;5031915;28;19979;-72
2022/08/16 04:33:24;;;;;;;;;;;20.50;99.90;;;;;;5032439;28;19943;-71
2022/08/16 04:35:50;;;;;;;;;;;20.50;99.90;;;;;;5031857;28;20020;-71
2022/08/16 04:38:15;;;;;;;;;;;20.50;99.90;;;;;;5032279;28;20033;-71
2022/08/16 04:40:41;;;;;;;;;;;20.40;99.90;;;;;;5032225;28;20391;-70
2022/08/16 04:43:06;;;;;;;;;;;20.40;99.90;;;;;;5032041;28;19925;-71
2022/08/16 04:45:32;;;;;;;;;;;20.40;99.90;;;;;;5032031;28;19928;-71
2022/08/16 04:47:58;;;;;;;;;;;20.40;99.90;;;;;;5031926;28;19929;-71
2022/08/16 04:50:26;;;;;;;;;;;20.40;99.90;;;;;;5032107;28;19974;-70
2022/08/16 04:52:53;;;;;;;;;;;20.40;99.90;;;;;;5031772;28;20007;-71
2022/08/16 04:55:20;;;;;;;;;;;20.40;99.90;;;;;;5032280;28;20003;-71
2022/08/16 04:57:48;;;;;;;;;;;20.40;99.90;;;;;;5031230;28;19921;-71
2022/08/16 05:00:15;;;;;;;;;;;20.40;99.90;;;;;;5031329;28;19925;-71
2022/08/16 05:02:41;;;;;;;;;;;20.40;99.90;;;;;;5017851;28;20384;-71
2022/08/16 05:05:07;;;;;;;;;;;20.50;99.90;;;;;;5032221;28;19928;-71
2022/08/16 05:07:33;;;;;;;;;;;20.40;99.90;;;;;;5031634;28;19928;-71
2022/08/16 05:09:58;;;;;;;;;;;20.40;99.90;;;;;;5031523;28;20311;-71
2022/08/16 05:12:24;;;;;;;;;;;20.40;99.90;;;;;;5031558;28;20418;-71
2022/08/16 05:14:49;;;;;;;;;;;20.40;99.90;;;;;;5031726;28;19921;-71
2022/08/16 05:17:15;;;;;;;;;;;20.40;99.90;;;;;;5031264;28;19921;-71
2022/08/16 05:19:40;;;;;;;;;;;20.40;99.90;;;;;;5031327;28;20016;-71
2022/08/16 05:22:06;;;;;;;;;;;20.40;99.90;;;;;;5031586;28;19928;-70
2022/08/16 05:24:31;;;;;;;;;;;20.40;99.90;;;;;;5031470;28;19977;-71
2022/08/16 05:26:57;;;;;;;;;;;20.50;99.90;;;;;;5030123;28;19921;-71
2022/08/16 05:29:22;;;;;;;;;;;20.50;99.90;;;;;;5030994;28;20303;-71
2022/08/16 05:31:48;;;;;;;;;;;20.50;99.90;;;;;;5031276;28;19921;-70
2022/08/16 05:34:14;;;;;;;;;;;20.60;99.90;;;;;;5031499;28;19921;-71
2022/08/16 05:36:39;;;;;;;;;;;20.60;99.90;;;;;;5031084;28;19924;-71
2022/08/16 05:39:05;;;;;;;;;;;20.70;99.90;;;;;;5029550;28;20019;-71
2022/08/16 05:41:31;;;;;;;;;;;20.70;99.90;;;;;;5031082;28;19955;-71
2022/08/16 05:43:59;;;;;;;;;;;20.70;99.90;;;;;;5031089;28;19952;-71
2022/08/16 05:46:24;;;;;;;;;;;20.70;99.90;;;;;;5029935;28;19927;-71
2022/08/16 05:48:50;;;;;;;;;;;20.70;99.90;;;;;;5031018;28;19921;-72
2022/08/16 05:51:15;;;;;;;;;;;20.70;99.90;;;;;;5030486;28;19920;-71
2022/08/16 05:53:41;;;;;;;;;;;20.60;99.90;;;;;;5030616;28;20422;-71
2022/08/16 05:56:06;;;;;;;;;;;20.70;99.90;;;;;;5030852;28;20295;-72
2022/08/16 05:58:32;;;;;;;;;;;20.70;99.90;;;;;;5030770;28;19952;-72
2022/08/16 06:00:57;;;;;;;;;;;20.70;99.90;;;;;;5030708;28;19928;-71
2022/08/16 06:03:23;;;;;;;;;;;20.80;99.90;;;;;;5029532;28;20004;-71
2022/08/16 06:05:48;;;;;;;;;;;20.80;99.90;;;;;;5030416;28;19925;-71
2022/08/16 06:08:14;;;;;;;;;;;20.90;99.90;;;;;;5030450;28;19932;-71
2022/08/16 06:10:39;;;;;;;;;;;21.00;99.90;;;;;;5030198;28;20296;-71
2022/08/16 06:13:05;;;;;;;;;;;21.00;99.90;;;;;;5030299;28;19974;-71
2022/08/16 06:15:30;;;;;;;;;;;21.00;99.90;;;;;;5030217;28;19928;-71
2022/08/16 06:17:57;;;;;;;;;;;21.10;99.90;;;;;;5030205;28;20043;-71
2022/08/16 06:20:24;;;;;;;;;;;21.20;99.90;;;;;;5030139;28;20413;-70
2022/08/16 06:22:54;;;;;;;;;;;21.20;99.90;;;;;;5030386;28;20062;-71
2022/08/16 06:25:20;;;;;;;;;;;21.20;99.90;;;;;;5030300;28;19929;-72
2022/08/16 06:27:45;;;;;;;;;;;21.30;99.90;;;;;;5029966;28;19921;-71
2022/08/16 06:30:12;;;;;;;;;;;21.40;99.90;;;;;;5029289;28;20398;-72
2022/08/16 06:32:38;;;;;;;;;;;21.40;99.90;;;;;;5029698;28;19921;-71
2022/08/16 06:35:04;;;;;;;;;;;21.50;99.90;;;;;;5029613;28;20307;-71
2022/08/16 06:37:29;;;;;;;;;;;21.60;99.90;;;;;;5030012;28;19921;-71
2022/08/16 06:39:55;;;;;;;;;;;21.60;99.90;;;;;;5028568;28;19939;-71
2022/08/16 06:42:20;;;;;;;;;;;21.70;99.90;;;;;;5029756;28;19921;-73
2022/08/16 06:44:46;;;;;;;;;;;21.70;99.90;;;;;;5029747;28;19924;-71
2022/08/16 06:47:12;;;;;;;;;;;21.80;99.90;;;;;;5029979;28;20308;-72
2022/08/16 06:49:38;;;;;;;;;;;21.90;99.90;;;;;;5028876;28;19925;-71
2022/08/16 06:52:03;;;;;;;;;;;21.90;99.90;;;;;;5029197;28;19921;-71
2022/08/16 06:54:29;;;;;;;;;;;22.00;99.90;;;;;;5029261;28;20016;-71
2022/08/16 06:56:54;;;;;;;;;;;22.10;99.90;;;;;;5029543;28;19925;-71
2022/08/16 06:59:21;;;;;;;;;;;22.10;99.90;;;;;;5029855;28;20311;-71
2022/08/16 07:01:47;;;;;;;;;;;22.10;99.90;;;;;;5029464;28;19968;-70
2022/08/16 07:04:13;;;;;;;;;;;22.20;99.90;;;;;;5028208;28;19921;-71
2022/08/16 07:06:41;;;;;;;;;;;22.20;99.80;;;;;;5029850;28;19928;-71
2022/08/16 07:09:07;;;;;;;;;;;22.20;99.80;;;;;;5028691;28;19932;-72
2022/08/16 07:11:32;;;;;;;;;;;22.20;99.90;;;;;;5029904;28;19925;-71
2022/08/16 07:13:58;;;;;;;;;;;22.20;99.80;;;;;;5029144;28;19920;-71
2022/08/16 07:16:24;;;;;;;;;;;22.30;99.70;;;;;;5029687;28;19921;-71
2022/08/16 07:18:51;;;;;;;;;;;22.30;99.60;;;;;;5030000;28;19929;-71
2022/08/16 07:21:16;;;;;;;;;;;22.40;99.50;;;;;;5029320;28;19960;-71
2022/08/16 07:23:45;;;;;;;;;;;22.50;99.50;;;;;;5028767;28;19968;-71
2022/08/16 07:26:13;;;;;;;;;;;22.60;99.20;;;;;;5028551;28;19991;-71
2022/08/16 07:28:39;;;;;;;;;;;22.70;98.90;;;;;;5029344;28;20414;-71
2022/08/16 07:31:05;;;;;;;;;;;22.70;98.70;;;;;;5028707;28;20004;-71
2022/08/16 07:33:33;;;;;;;;;;;22.80;98.80;;;;;;5016478;28;19921;-71
2022/08/16 07:35:59;;;;;;;;;;;22.90;98.30;;;;;;5029340;28;19921;-71
2022/08/16 07:38:26;;;;;;;;;;;22.90;98.00;;;;;;5029182;28;20020;-71
2022/08/16 07:40:55;;;;;;;;;;;23.00;97.90;;;;;;5029673;28;19928;-71
2022/08/16 07:43:21;;;;;;;;;;;23.00;98.00;;;;;;5029610;28;19921;-71
2022/08/16 07:45:47;;;;;;;;;;;23.10;98.00;;;;;;5029043;28;19975;-71
2022/08/16 07:48:13;;;;;;;;;;;23.10;97.80;;;;;;5029141;28;19968;-71
2022/08/16 07:50:40;;;;;;;;;;;23.20;97.60;;;;;;5029225;28;19971;-71
2022/08/16 07:53:05;;;;;;;;;;;23.30;97.60;;;;;;5029387;28;20254;-71
2022/08/16 07:55:31;;;;;;;;;;;23.40;97.50;;;;;;5028969;28;19921;-71
2022/08/16 07:57:56;;;;;;;;;;;23.40;97.60;;;;;;5029314;28;19925;-71
2022/08/16 08:00:22;;;;;;;;;;;23.50;97.50;;;;;;5029115;28;20287;-71
2022/08/16 08:02:47;;;;;;;;;;;23.50;97.00;;;;;;5029161;28;19933;-71
2022/08/16 08:05:14;;;;;;;;;;;23.60;97.20;;;;;;5027534;28;20352;-71
2022/08/16 08:07:39;;;;;;;;;;;23.70;97.00;;;;;;5029203;28;19921;-72
2022/08/16 08:10:05;;;;;;;;;;;23.70;97.00;;;;;;5030634;28;19925;-71
2022/08/16 08:12:31;;;;;;;;;;;23.80;97.00;;;;;;5032506;28;19925;-71
2022/08/16 08:14:57;;;;;;;;;;;23.80;96.80;;;;;;5032397;28;20497;-72
2022/08/16 08:17:22;;;;;;;;;;;23.90;96.70;;;;;;5032931;28;20395;-72
2022/08/16 08:19:48;;;;;;;;;;;24.00;96.00;;;;;;5032511;28;20019;-71
2022/08/16 08:22:13;;;;;;;;;;;24.00;95.30;;;;;;5032572;28;20561;-71
2022/08/16 08:24:39;;;;;;;;;;;24.20;95.80;;;;;;5032046;28;20390;-71
2022/08/16 08:27:07;;;;;;;;;;;24.20;95.30;;;;;;5031954;28;19921;-72
2022/08/16 08:29:33;;;;;;;;;;;24.30;94.80;;;;;;5032440;28;19921;-72
2022/08/16 08:31:59;;;;;;;;;;;24.40;94.80;;;;;;5032415;28;19920;-71
2022/08/16 08:34:25;;;;;;;;;;;24.50;94.60;;;;;;5032712;28;19927;-72
2022/08/16 08:36:51;;;;;;;;;;;24.60;94.40;;;;;;5032551;28;19920;-71
2022/08/16 08:39:16;;;;;;;;;;;24.60;93.50;;;;;;5031722;28;19932;-71
2022/08/16 08:41:42;;;;;;;;;;;24.70;93.30;;;;;;5032047;28;19928;-71
2022/08/16 08:44:11;;;;;;;;;;;24.70;93.10;;;;;;5031995;28;20405;-71
2022/08/16 08:46:36;;;;;;;;;;;24.80;93.20;;;;;;5032103;28;20007;-72
2022/08/16 08:49:02;;;;;;;;;;;24.90;92.70;;;;;;5031979;28;20839;-71
2022/08/16 08:51:28;;;;;;;;;;;24.90;92.90;;;;;;5032106;28;19928;-71
2022/08/16 08:53:54;;;;;;;;;;;25.00;92.60;;;;;;5032095;28;19921;-71
2022/08/16 08:56:20;;;;;;;;;;;25.10;92.20;;;;;;5031598;28;19921;-71
2022/08/16 08:58:45;;;;;;;;;;;25.10;91.70;;;;;;5031795;28;19999;-71
2022/08/16 09:01:11;;;;;;;;;;;25.20;91.70;;;;;;5031959;28;19928;-71
2022/08/16 09:03:37;;;;;;;;;;;25.20;91.70;;;;;;5031920;28;19931;-71
2022/08/16 09:06:03;;;;;;;;;;;25.30;91.30;;;;;;5031955;28;20000;-72
2022/08/16 09:08:30;;;;;;;;;;;25.40;91.10;;;;;;5031660;28;20376;-71
2022/08/16 09:10:56;;;;;;;;;;;25.40;90.80;;;;;;5031730;28;19976;-71
2022/08/16 09:13:23;;;;;;;;;;;25.50;90.70;;;;;;5031045;28;19975;-72
2022/08/16 09:15:49;;;;;;;;;;;25.60;90.50;;;;;;5031682;28;20646;-71
2022/08/16 09:18:16;;;;;;;;;;;25.70;90.30;;;;;;5031232;28;20395;-71
2022/08/16 09:20:42;;;;;;;;;;;25.80;90.10;;;;;;5031351;28;19924;-71
2022/08/16 09:23:09;;;;;;;;;;;25.90;88.40;;;;;;5031622;28;19929;-71
2022/08/16 09:25:34;;;;;;;;;;;26.00;89.20;;;;;;5031548;28;20335;-71
2022/08/16 09:28:00;;;;;;;;;;;26.10;88.30;;;;;;5031173;28;19928;-71
2022/08/16 09:30:26;;;;;;;;;;;26.40;88.70;;;;;;5031928;28;20379;-71
2022/08/16 09:32:53;;;;;;;;;;;26.90;88.10;;;;;;5030986;28;19963;-71
2022/08/16 09:35:22;;;;;;;;;;;27.50;86.60;;;;;;5031172;28;19925;-71
2022/08/16 09:37:47;;;;;;;6.40;4.15;;;28.00;85.70;;;;;;5030650;28;20038;-71
2022/08/16 09:40:13;;;;;;;4.40;3.40;;;28.60;85.60;;;;;;5029894;28;20037;-72
2022/08/16 09:42:39;;;;;;;;;;;29.00;81.90;;;;;;5030118;28;20045;-71
2022/08/16 09:45:07;;;;;;;;;;;29.40;81.50;;;;;;5030174;28;20012;-71
2022/08/16 09:47:39;;;;;;;;;;;29.70;79.20;;;;;;5029951;28;19921;-71
2022/08/16 09:50:07;;;;;;;4.88;3.17;;;30.00;78.60;;;;;;5030374;28;19921;-71
2022/08/16 09:52:36;;;;;;;4.53;3.40;;;30.30;79.40;;;;;;5030265;28;20084;-72
2022/08/16 09:55:08;;;;;;;;;;;30.70;79.40;;;;;;5031144;28;20377;-72
2022/08/16 09:57:36;;;;;;;5.78;3.85;;;31.00;75.90;;;;;;5030399;28;20335;-71
2022/08/16 10:00:06;;;;;;;5.60;3.35;;;31.10;74.60;;;;;;5029914;28;20153;-71
2022/08/16 10:02:32;;;;;;;5.97;3.78;;;31.10;75.00;;;;;;5028980;28;20828;-72
2022/08/16 10:04:58;;;;;;;5.75;4.07;;;31.20;74.20;;;;;;5029037;28;20474;-72
2022/08/16 10:07:26;;;;;;;5.38;3.60;;;31.40;73.40;;;;;;5028746;28;20415;-72
2022/08/16 10:09:51;;;;;;;5.47;3.47;;;31.50;72.70;;;;;;5028739;28;20874;-71
2022/08/16 10:15:03;;;;;;;7.20;3.35;;;31.80;70.40;;;;;;5028594;28;20482;-71
2022/08/16 10:17:29;;;;;;;;;;;31.90;69.00;;;;;;5030202;28;20165;-72
2022/08/16 10:19:55;;;;;;;5.82;3.50;;;32.10;69.80;;;;;;5029726;28;20019;-72
2022/08/16 10:22:21;;;;;;;5.03;3.20;;;32.30;68.40;;;;;;5029909;28;20091;-72
2022/08/16 10:24:47;;;;;;;4.78;3.70;;;32.40;68.00;;;;;;5029770;28;20042;-71
2022/08/16 10:27:12;;;;;;;3.55;2.92;;;32.60;67.30;;;;;;5029650;28;20085;-69
2022/08/16 10:29:39;;;;;;;5.47;3.67;;;32.70;67.90;;;;;;5029695;28;20037;-69
2022/08/16 10:32:05;;;;;;;4.03;3.38;;;32.90;66.70;;;;;;5029835;28;20076;-69
2022/08/16 10:34:31;;;;;;;4.40;2.75;;;32.90;66.20;;;;;;5029197;28;20045;-69
2022/08/16 10:36:57;;;;;;;4.00;2.72;;;33.10;63.90;;;;;;5029660;28;20128;-69
2022/08/16 10:39:22;;;;;;;4.07;3.00;;;33.10;64.50;;;;;;5028224;28;20403;-69
2022/08/16 10:41:48;;;;;;;3.30;3.00;;;33.30;64.20;;;;;;5028437;28;20402;-69
2022/08/16 10:44:14;;;;;;;5.55;3.45;;;33.30;63.60;;;;;;5028463;28;20411;-69
2022/08/16 10:46:41;;;;;;;5.40;2.95;;;33.50;62.10;;;;;;5027847;28;20398;-69
2022/08/16 10:49:08;;;;;;;6.50;3.00;;;33.60;63.30;;;;;;5028159;28;20410;-69
2022/08/16 10:51:37;;;;;;;4.50;2.85;;;33.70;61.40;;;;;;5028328;28;20395;-70
2022/08/16 10:54:03;;;;;;;3.72;3.20;;;33.60;59.90;;;;;;5027887;28;20128;-69
2022/08/16 10:56:29;;;;;;;;;;;33.70;60.70;;;;;;5029862;28;20140;-69
2022/08/16 10:58:56;;;;;;;;;;;33.90;61.30;;;;;;5028194;28;19964;-69
2022/08/16 11:01:24;;;;;;;;;;;34.00;59.90;;;;;;5028518;28;20398;-69
2022/08/16 11:03:51;;;;;;;6.05;3.15;;;34.10;59.90;;;;;;5029337;28;19921;-69
2022/08/16 11:06:17;;;;;;;8.68;3.15;;;34.30;60.00;;;;;;5028935;28;20125;-69
2022/08/16 11:08:43;;;;;;;5.57;2.72;;;34.30;60.00;;;;;;5028877;28;20120;-69
2022/08/16 11:11:10;;;;;;;;;;;34.50;59.80;;;;;;5029528;28;20053;-70
2022/08/16 11:13:36;;;;;;;;;;;34.60;58.10;;;;;;5029621;28;20396;-69
2022/08/16 11:16:04;;;;;;;4.95;2.70;;;34.70;58.80;;;;;;5027907;28;19960;-69
2022/08/16 11:18:30;;;;;;;3.95;2.80;;;34.80;59.00;;;;;;5028890;28;20095;-69
2022/08/16 11:20:57;;;;;;;5.07;3.20;;;34.90;57.70;;;;;;5028964;28;20046;-69
2022/08/16 11:23:24;;;;;;;5.30;3.20;;;34.80;56.00;;;;;;5029038;28;20041;-69
2022/08/16 11:25:50;;;;;;;5.40;3.20;;;34.60;55.00;;;;;;5027750;28;20417;-69
2022/08/16 11:28:16;;;;;;;7.05;3.63;;;34.50;56.10;;;;;;5027436;28;20411;-69
2022/08/16 11:30:42;;;;;;;4.90;2.92;;;34.50;55.10;;;;;;5026985;28;20411;-69
2022/08/16 11:33:08;;;;;;;6.10;3.35;;;34.60;55.90;;;;;;5027548;28;20407;-69
2022/08/16 11:35:34;;;;;;;6.20;3.50;;;34.70;56.30;;;;;;5027855;28;20490;-69
2022/08/16 11:38:16;;;;;;;6.53;3.88;;;34.70;55.20;;;;;;5027404;28;20514;-70
2022/08/16 11:40:49;;;;;;;5.75;3.90;;;34.80;55.40;;;;;;5027698;28;20629;-69
2022/08/16 11:43:18;;;;;;;4.97;3.35;;;34.80;55.50;;;;;;5027521;28;20940;-69
2022/08/16 11:45:46;;;;;;;4.68;3.28;;;34.90;56.20;;;;;;5030502;28;20491;-70
2022/08/16 11:48:12;;;;;;;;;;;35.10;55.20;;;;;;5033486;28;20076;-69
2022/08/16 11:50:38;;;;;;;;;;;35.20;54.30;;;;;;5032235;28;19931;-69
2022/08/16 11:53:05;;;;;;;;;;;35.20;54.10;;;;;;5033108;28;20003;-70
2022/08/16 11:55:32;;;;;;;6.00;3.03;;;35.30;54.00;;;;;;5032625;28;19928;-69
2022/08/16 11:57:59;;;;;;;6.30;3.15;;;35.20;53.60;;;;;;5031065;28;20048;-69
2022/08/16 12:00:24;;;;;;;;;;;35.30;55.70;;;;;;5032449;28;20156;-69
2022/08/16 12:02:50;;;;;;;5.32;4.40;;;35.60;55.50;;;;;;5032601;28;19921;-69
2022/08/16 12:05:16;;;;;;;5.18;3.88;;;35.90;54.80;;;;;;5030968;28;20395;-69
2022/08/16 12:07:42;;;;;;;6.50;3.60;;;35.90;54.50;;;;;;5030392;28;20415;-70
2022/08/16 12:10:14;;;;;;;7.43;4.13;;;35.90;54.00;;;;;;5030706;28;20768;-69
2022/08/16 12:12:40;;;;;;;;;;;35.90;54.10;;;;;;5032821;28;20045;-69
2022/08/16 12:15:06;;;;;;;;;;;35.90;53.60;;;;;;5032419;28;19943;-69
2022/08/16 12:17:32;;;;;;;;;;;35.90;53.40;;;;;;5032384;28;20371;-70
2022/08/16 12:19:58;;;;;;;;;;;35.80;53.60;;;;;;5032331;28;19979;-69
2022/08/16 12:22:24;;;;;;;5.22;3.65;;;35.90;54.10;;;;;;5031747;28;19960;-69
2022/08/16 12:24:50;;;;;;;5.75;3.58;;;35.90;54.00;;;;;;5031638;28;20091;-69
2022/08/16 12:27:16;;;;;;;5.63;3.40;;;36.00;52.00;;;;;;5032222;28;20551;-70
2022/08/16 12:29:42;;;;;;;6.55;3.28;;;36.00;53.10;;;;;;5030616;28;20045;-69
2022/08/16 12:32:08;;;;;;;5.10;3.47;;;36.10;53.00;;;;;;5030675;28;20098;-69
2022/08/16 12:34:34;;;;;;;6.75;3.58;;;36.20;52.30;;;;;;5030975;28;20042;-70
2022/08/16 12:37:01;;;;;;;9.88;3.92;;;36.00;50.80;;;;;;5029610;28;20508;-70
2022/08/16 12:39:28;;;;;;;6.90;3.70;;;35.60;52.10;;;;;;5029532;28;20407;-69
2022/08/16 12:41:55;;;;;;;8.13;3.63;;;35.20;52.90;;;;;;5030379;28;20258;-69
2022/08/16 12:44:21;;;;;;;5.95;3.38;;;35.00;52.90;;;;;;5031154;28;20053;-69
2022/08/16 12:48:56;;;;;;;;;;;35.20;54.20;;;;;;5031970;28;20041;-70
2022/08/16 12:49:32;;;;;;;;;;;35.30;52.50;;;;;;5031487;28;20280;-69
2022/08/16 12:51:57;;;;;;;;;;;35.50;51.50;;;;;;5031846;28;19928;-69
2022/08/16 12:54:23;;;;;;;;;;;35.60;51.80;;;;;;5031714;28;19921;-70
2022/08/16 12:56:49;;;;;;;;;;;35.60;52.10;;;;;;5031446;28;19921;-71
2022/08/16 12:59:15;;;;;;;4.80;3.00;;;35.60;52.20;;;;;;5031407;28;19932;-69
2022/08/16 13:01:40;;;;;;;;;;;35.60;52.30;;;;;;5031587;28;20045;-69
2022/08/16 13:04:07;;;;;;;;;;;35.70;51.30;;;;;;5031678;28;19974;-69
2022/08/16 13:06:34;;;;;;;4.55;3.22;;;35.40;51.80;;;;;;5031082;28;19921;-69
2022/08/16 13:09:01;;;;;;;5.25;3.35;;;35.20;51.60;;;;;;5031089;28;20049;-69
2022/08/16 13:11:37;;;;;;;6.20;3.33;;;35.20;51.50;;;;;;5030822;28;20061;-70
2022/08/16 13:14:02;;;;;;;5.07;3.38;;;35.20;52.40;;;;;;5031180;28;20729;-70
2022/08/16 13:16:28;;;;;;;4.40;3.20;;;35.20;51.90;;;;;;5030470;28;20056;-69
2022/08/16 13:18:54;;;;;;;9.05;3.80;;;35.00;50.90;;;;;;5030818;28;20038;-70
2022/08/16 13:21:20;;;;;;;5.75;3.45;;;35.00;52.00;;;;;;5030675;28;20049;-70
2022/08/16 13:23:46;;;;;;;7.00;3.78;;;35.10;52.80;;;;;;5030955;28;20047;-69
2022/08/16 13:26:11;;;;;;;9.13;3.15;;;35.20;52.50;;;;;;5030928;28;20378;-69
2022/08/16 13:28:37;;;;;;;;;;;35.10;52.40;;;;;;5030940;28;20072;-70
2022/08/16 13:31:02;;;;;;;;;;;34.70;51.90;;;;;;5031786;28;19921;-69
2022/08/16 13:33:29;;;;;;;;;;;34.20;52.10;;;;;;5030588;28;19939;-69
2022/08/16 13:35:56;;;;;;;;;;;33.80;52.90;;;;;;5030449;28;19967;-72
2022/08/16 13:38:22;;;;;;;5.28;3.08;;;34.10;54.00;;;;;;5029709;28;20011;-72
2022/08/16 13:40:48;;;;;;;;;;;34.80;53.80;;;;;;5030387;28;20088;-72
2022/08/16 13:43:14;;;;;;;7.65;3.40;;;35.40;52.50;;;;;;5029372;28;19964;-72
2022/08/16 13:45:40;;;;;;;4.70;3.33;;;35.50;52.60;;;;;;5029676;28;20419;-71
2022/08/16 13:48:06;;;;;;;5.20;3.43;;;35.50;52.30;;;;;;5029400;28;20417;-72
2022/08/16 13:50:33;;;;;;;6.43;3.63;;;35.50;51.90;;;;;;5028902;28;20482;-72
2022/08/16 13:52:59;;;;;;;7.07;3.95;;;35.30;51.60;;;;;;5017087;28;20418;-72